createdAt,value
2019-02-24T20:29:13.148Z,5.83
2019-02-24T20:31:41.145Z,5.77
2019-02-24T20:34:08.776Z,5.73
2019-02-24T20:36:36.394Z,5.67
2019-02-24T20:39:05.975Z,5.62
2019-02-24T20:41:33.604Z,5.57
2019-02-24T20:44:01.212Z,5.50
2019-02-24T20:46:29.167Z,5.43
2019-02-24T20:48:56.791Z,5.36
2019-02-24T20:51:24.899Z,5.28
2019-02-24T20:53:52.523Z,5.25
2019-02-24T20:56:16.140Z,5.26
2019-02-24T20:56:38.725Z,5.22
2019-02-24T20:57:01.300Z,5.22
2019-02-24T20:57:23.887Z,5.22
2019-02-24T20:57:47.061Z,5.22
2019-02-24T20:58:09.656Z,5.21
2019-02-24T20:58:32.239Z,5.22
2019-02-24T20:58:54.858Z,5.21
2019-02-24T20:59:17.539Z,5.20
2019-02-24T20:59:40.120Z,5.20
2019-02-24T21:00:02.804Z,5.19
2019-02-24T21:00:26.570Z,5.19
2019-02-24T21:00:50.031Z,5.19
2019-02-24T21:01:12.622Z,5.18
2019-02-24T21:01:35.262Z,5.17
2019-02-24T21:01:57.847Z,5.17
2019-02-24T21:02:20.430Z,5.17
2019-02-24T21:02:43.305Z,5.15
2019-02-24T21:03:05.883Z,5.15
2019-02-24T21:03:28.473Z,5.14
2019-02-24T21:03:51.056Z,5.14
2019-02-24T21:04:13.934Z,5.09
2019-02-24T21:07:00.644Z,5.16
2019-02-24T21:09:28.316Z,5.08
2019-02-24T21:11:57.138Z,5.04
2019-02-24T21:18:08.038Z,4.95
2019-02-24T21:23:34.196Z,4.88
2019-02-24T21:26:02.124Z,4.86
2019-02-24T21:28:29.741Z,4.86
2019-02-24T21:30:57.361Z,4.83
2019-02-24T21:33:25.318Z,4.79
2019-02-24T21:35:53.296Z,4.74
2019-02-24T21:38:20.892Z,4.68
2019-02-24T21:40:48.561Z,4.65
2019-02-24T21:43:16.238Z,4.61
2019-02-24T21:45:43.871Z,4.58
2019-02-24T21:48:11.566Z,4.54
2019-02-24T21:50:39.204Z,4.50
2019-02-24T21:53:06.803Z,4.45
2019-02-24T21:55:34.799Z,4.38
2019-02-24T21:58:04.280Z,4.34
2019-02-24T22:00:31.744Z,4.29
2019-02-24T22:02:59.351Z,4.23
2019-02-24T22:05:26.980Z,4.18
2019-02-24T22:07:55.729Z,4.13
2019-02-24T22:10:23.605Z,4.13
2019-02-24T22:12:51.504Z,4.15
2019-02-24T22:15:19.691Z,4.15
2019-02-24T22:17:47.288Z,4.15
2019-02-24T22:20:15.279Z,4.14
2019-02-24T22:22:43.183Z,4.11
2019-02-24T22:25:11.585Z,4.09
2019-02-24T22:27:39.188Z,4.08
2019-02-24T22:30:11.081Z,4.07
2019-02-24T22:32:39.051Z,4.06
2019-02-24T22:35:07.446Z,4.03
2019-02-24T22:37:35.045Z,4.00
2019-02-24T22:40:02.719Z,3.95
2019-02-24T22:42:30.336Z,3.90
2019-02-24T22:44:58.383Z,3.82
2019-02-24T22:47:26.000Z,3.76
2019-02-24T22:49:53.609Z,3.70
2019-02-24T22:52:21.777Z,3.67
2019-02-24T22:54:49.368Z,3.67
2019-02-24T22:57:16.994Z,3.67
2019-02-24T22:59:44.963Z,3.66
2019-02-24T23:02:12.581Z,3.63
2019-02-24T23:04:40.286Z,3.59
2019-02-24T23:07:08.279Z,3.57
2019-02-24T23:09:35.896Z,3.55
2019-02-24T23:12:03.500Z,3.53
2019-02-24T23:14:31.448Z,3.49
2019-02-24T23:16:59.055Z,3.46
2019-02-24T23:19:26.972Z,3.43
2019-02-24T23:21:54.581Z,3.39
2019-02-24T23:24:24.049Z,3.32
2019-02-24T23:26:51.527Z,3.25
2019-02-24T23:29:19.135Z,3.20
2019-02-24T23:31:46.764Z,3.16
2019-02-24T23:34:14.411Z,3.13
2019-02-24T23:36:42.055Z,3.11
2019-02-24T23:39:11.365Z,3.08
2019-02-24T23:41:38.986Z,3.07
2019-02-24T23:44:06.588Z,3.06
2019-02-24T23:46:34.214Z,3.07
2019-02-24T23:49:01.851Z,3.08
2019-02-24T23:51:29.764Z,3.09
2019-02-24T23:53:57.377Z,3.08
2019-02-24T23:56:24.997Z,3.07
2019-02-24T23:58:53.067Z,3.06
